This is the latest recevied weather packets stored in our database for station/object DG1GMY-13. If no packets are shown the sender has not sent any weather packets the latest 10 day(s).
| Time | Temp. | Humidity | Pressure | Rain* | Wind** | Luminosity | Snow |
|---|---|---|---|---|---|---|---|
| 1777931258 | 15° C | 74% | 1013.9 hPa | - | - | - | - |
| 1777929452 | 15° C | 72% | 1014.1 hPa | - | - | - | - |
| 1777927646 | 15° C | 71% | 1014.3 hPa | - | - | - | - |
| 1777925840 | 15.56° C | 68% | 1014 hPa | - | - | - | - |
| 1777924035 | 15.56° C | 66% | 1013.9 hPa | - | - | - | - |
| 1777922228 | 15.56° C | 66% | 1013.8 hPa | - | - | - | - |
| 1777920422 | 15.56° C | 65% | 1013.8 hPa | - | - | - | - |
| 1777918616 | 16.11° C | 64% | 1013.9 hPa | - | - | - | - |
| 1777916810 | 16.11° C | 66% | 1013.8 hPa | - | - | - | - |
| 1777915004 | 16.67° C | 64% | 1013.9 hPa | - | - | - | - |
| 1777913198 | 17.22° C | 61% | 1014.1 hPa | - | - | - | - |
| 1777911392 | 17.22° C | 62% | 1014 hPa | - | - | - | - |
| 1777909586 | 18.89° C | 54% | 1013.9 hPa | - | - | - | - |
| 1777907780 | 19.44° C | 49% | 1013.8 hPa | - | - | - | - |
| 1777905974 | 20° C | 51% | 1013.7 hPa | - | - | - | - |
| 1777904168 | 20.56° C | 46% | 1013.8 hPa | - | - | - | - |
| 1777902362 | 19.44° C | 49% | 1014.1 hPa | - | - | - | - |
| 1777900556 | 20° C | 45% | 1014.2 hPa | - | - | - | - |
| 1777898750 | 20.56° C | 45% | 1014.5 hPa | - | - | - | - |
| 1777896944 | 21.11° C | 44% | 1014.6 hPa | - | - | - | - |
| 1777895138 | 20.56° C | 48% | 1014.8 hPa | - | - | - | - |
| 1777893333 | 18.89° C | 53% | 1015.1 hPa | - | - | - | - |
| 1777891526 | 18.33° C | 61% | 1015.4 hPa | - | - | - | - |
| 1777889721 | 17.22° C | 67% | 1015.6 hPa | - | - | - | - |
| 1777887914 | 16.11° C | 66% | 1015.8 hPa | - | - | - | - |
* Rain since midnight (hover to see other rain measurements)
** Current wind speed in m/s (hover to see current wind gust speed)